createdAt,value
2022-09-23T00:01:26.621Z,101171.13
2022-09-23T00:04:30.582Z,101167.72
2022-09-23T00:07:33.067Z,101172.97
2022-09-23T00:10:38.684Z,101174.69
2022-09-23T00:13:43.366Z,101162.47
2022-09-23T00:16:45.928Z,101161.59
2022-09-23T00:19:50.058Z,101159.78
2022-09-23T00:22:53.365Z,101160.66
2022-09-23T00:25:59.234Z,101162.47
2022-09-23T00:29:01.882Z,101163.41
2022-09-23T00:32:05.064Z,101162.59
2022-09-23T00:35:10.648Z,101163.50
2022-09-23T00:38:14.243Z,101159.22
2022-09-23T00:41:16.977Z,101159.13
2022-09-23T00:44:49.127Z,101152.97
2022-09-23T00:47:55.760Z,101153.03
2022-09-23T00:50:59.571Z,101154.75
2022-09-23T00:54:03.007Z,101150.38
2022-09-23T00:57:06.959Z,101149.56
2022-09-23T01:00:11.585Z,101149.63
2022-09-23T01:03:15.166Z,101149.63
2022-09-23T01:06:18.978Z,101146.16
2022-09-23T01:09:22.881Z,101140.03
2022-09-23T01:12:48.327Z,101143.53
2022-09-23T01:15:57.906Z,101134.91
2022-09-23T01:19:11.314Z,101133.25
2022-09-23T01:22:23.549Z,101127.19
2022-09-23T01:25:44.967Z,101128.97
2022-09-23T01:29:17.878Z,101122.78
2022-09-23T01:32:32.151Z,101121.13
2022-09-23T01:35:45.027Z,101121.19
2022-09-23T01:38:58.407Z,101115.03
2022-09-23T01:42:07.009Z,101118.47
2022-09-23T01:45:15.439Z,101116.63
2022-09-23T01:48:24.422Z,101109.59
2022-09-23T01:51:31.903Z,101108.78
2022-09-23T01:54:39.726Z,101102.84
2022-09-23T01:57:45.783Z,101098.63
2022-09-23T02:00:53.274Z,101101.28
2022-09-23T02:04:05.215Z,101098.78
2022-09-23T02:07:15.155Z,101097.19
2022-09-23T02:10:25.087Z,101089.34
2022-09-23T02:13:33.327Z,101090.28
2022-09-23T02:16:40.882Z,101090.28
2022-09-23T02:19:47.893Z,101083.34
2022-09-23T02:22:57.407Z,101085.03
2022-09-23T02:26:07.414Z,101080.53
2022-09-23T02:29:19.748Z,101073.63
2022-09-23T02:32:28.420Z,101069.44
2022-09-23T02:35:37.808Z,101071.16
2022-09-23T02:38:45.529Z,101061.69
2022-09-23T02:41:57.059Z,101064.31
2022-09-23T02:44:59.725Z,101061.72
2022-09-23T02:48:06.454Z,101065.19
2022-09-23T02:51:11.314Z,101060.84
2022-09-23T02:54:15.831Z,101053.84
2022-09-23T02:57:18.409Z,101050.41
2022-09-23T03:00:21.091Z,101047.84
2022-09-23T03:03:40.475Z,101044.25
2022-09-23T03:06:54.268Z,101042.56
2022-09-23T03:10:05.363Z,101049.56
2022-09-23T03:13:16.980Z,101033.03
2022-09-23T03:16:30.860Z,101039.19
2022-09-23T03:19:41.414Z,101034.88
2022-09-23T03:22:49.751Z,101032.31
2022-09-23T03:25:54.935Z,101030.56
2022-09-23T03:28:58.668Z,101033.16
2022-09-23T03:32:01.342Z,101031.44
2022-09-23T03:35:06.391Z,101031.41
2022-09-23T03:38:17.419Z,101031.41
2022-09-23T03:41:28.408Z,101022.78
2022-09-23T03:44:31.165Z,101011.47
2022-09-23T03:47:33.909Z,101018.38
2022-09-23T03:50:36.443Z,101009.66
2022-09-23T03:53:40.237Z,101005.38
2022-09-23T03:56:42.732Z,101002.03
2022-09-23T03:59:45.207Z,100997.66
2022-09-23T04:02:48.199Z,100998.59
2022-09-23T04:05:51.830Z,100995.09
2022-09-23T04:08:55.712Z,100991.59
2022-09-23T04:11:58.359Z,100991.59
2022-09-23T04:15:00.837Z,100994.16
2022-09-23T04:18:03.304Z,100990.75
2022-09-23T04:21:05.951Z,100992.59
2022-09-23T04:24:10.624Z,100990.06
2022-09-23T04:27:13.061Z,100988.28
2022-09-23T04:30:15.561Z,100981.41
2022-09-23T04:33:18.292Z,100987.41
2022-09-23T04:36:20.827Z,100989.13
2022-09-23T04:39:24.652Z,100978.66
2022-09-23T04:42:29.533Z,100981.25
2022-09-23T04:45:32.071Z,100977.06
2022-09-23T04:48:34.913Z,100977.91
2022-09-23T04:51:37.378Z,100985.69
2022-09-23T04:54:41.560Z,100977.72
2022-09-23T04:57:44.461Z,100980.28
2022-09-23T05:00:46.973Z,100979.41
2022-09-23T05:03:49.448Z,100981.94
2022-09-23T05:06:51.888Z,100974.25
2022-09-23T05:09:55.666Z,100981.16
2022-09-23T05:12:59.024Z,100978.47
2022-09-23T05:16:03.276Z,100981.88
2022-09-23T05:19:06.019Z,100973.13
2022-09-23T05:22:08.518Z,100977.28
2022-09-23T05:25:12.306Z,100965.78
2022-09-23T05:28:18.012Z,100975.19
2022-09-23T05:31:22.740Z,100970.84
2022-09-23T05:34:25.629Z,100969.03
2022-09-23T05:37:28.064Z,100965.50
2022-09-23T05:40:32.123Z,100969.78
2022-09-23T05:43:35.737Z,100957.53
2022-09-23T05:46:38.302Z,100965.16
2022-09-23T05:49:58.504Z,100962.22
2022-09-23T05:53:01.508Z,100966.22
2022-09-23T05:56:05.726Z,100959.75
2022-09-23T05:59:08.414Z,100962.06
2022-09-23T06:02:11.197Z,100958.66
2022-09-23T06:05:13.796Z,100966.72
2022-09-23T06:08:16.351Z,100975.66
2022-09-23T06:11:21.521Z,100978.16
2022-09-23T06:14:24.430Z,100978.13
2022-09-23T06:17:26.884Z,100978.31
2022-09-23T06:20:29.549Z,100973.16
2022-09-23T06:23:32.495Z,100982.69
2022-09-23T06:26:37.642Z,100984.28
2022-09-23T06:29:40.223Z,100984.59
2022-09-23T06:32:43.138Z,100994.66
2022-09-23T06:35:56.239Z,100979.69
2022-09-23T06:39:02.780Z,100985.31
2022-09-23T06:42:07.690Z,100992.81
2022-09-23T06:45:13.142Z,100987.72
2022-09-23T06:48:15.687Z,100987.72
2022-09-23T06:51:19.973Z,100991.53
2022-09-23T06:54:22.784Z,100992.91
2022-09-23T06:57:30.098Z,100994.19
2022-09-23T07:00:32.593Z,100989.38
2022-09-23T07:03:36.420Z,100980.56
2022-09-23T07:06:38.989Z,100994.09
2022-09-23T07:09:41.617Z,100992.63
2022-09-23T07:12:45.438Z,100994.84
2022-09-23T07:15:50.781Z,100997.03
2022-09-23T07:18:53.550Z,100997.41
2022-09-23T07:21:57.047Z,101003.53
2022-09-23T07:24:59.514Z,101006.75
2022-09-23T07:28:03.487Z,101008.63
2022-09-23T07:31:08.034Z,101007.72
2022-09-23T07:34:12.111Z,101009.41
2022-09-23T07:37:14.623Z,101001.41
2022-09-23T07:40:17.189Z,101007.75
2022-09-23T07:43:20.998Z,101010.31
2022-09-23T07:46:23.594Z,101011.88
2022-09-23T07:49:26.508Z,101015.94
2022-09-23T07:52:28.947Z,101015.47
2022-09-23T07:55:31.441Z,101007.72
2022-09-23T07:58:36.092Z,101003.81
2022-09-23T08:01:40.345Z,101008.56
2022-09-23T08:04:43.302Z,101015.41
2022-09-23T08:07:45.831Z,101007.81
2022-09-23T08:10:48.296Z,101013.75
2022-09-23T08:13:52.109Z,101008.41
2022-09-23T08:16:54.637Z,101014.25
2022-09-23T08:19:57.095Z,101002.50
2022-09-23T08:22:59.791Z,100999.13
2022-09-23T08:26:03.627Z,101004.47
2022-09-23T08:29:09.809Z,101003.97
2022-09-23T08:32:12.312Z,101000.34
2022-09-23T08:35:15.132Z,101001.69
2022-09-23T08:38:17.605Z,100995.66
2022-09-23T08:41:26.873Z,100995.53
2022-09-23T08:44:38.813Z,101005.53
2022-09-23T08:47:48.096Z,101000.72
2022-09-23T08:50:58.586Z,100989.13
2022-09-23T08:54:01.680Z,100990.41
2022-09-23T08:57:06.392Z,100988.75
2022-09-23T09:00:21.064Z,100986.50
2022-09-23T09:03:25.969Z,100985.09
2022-09-23T09:06:41.865Z,100982.03
2022-09-23T09:09:56.308Z,100972.44
2022-09-23T09:13:04.428Z,100975.56
2022-09-23T09:16:55.641Z,100973.69
2022-09-23T09:19:57.473Z,100977.69
2022-09-23T09:23:00.784Z,100977.28
2022-09-23T09:26:05.244Z,100979.56
2022-09-23T09:29:31.227Z,100971.38
2022-09-23T09:32:48.427Z,100975.97
2022-09-23T09:36:03.123Z,100979.19
2022-09-23T09:39:06.723Z,100969.31
2022-09-23T09:42:20.189Z,100975.16
2022-09-23T09:45:33.828Z,100964.31
2022-09-23T09:48:40.933Z,100955.19
2022-09-23T09:51:43.810Z,100950.88
2022-09-23T09:54:46.343Z,100949.78
2022-09-23T09:57:53.592Z,100953.78
2022-09-23T10:00:57.064Z,100946.44
2022-09-23T10:04:03.701Z,100938.44
2022-09-23T10:07:09.420Z,100938.72
2022-09-23T10:10:32.239Z,100935.81
2022-09-23T10:13:36.244Z,100929.19
2022-09-23T10:16:40.096Z,100927.91
2022-09-23T10:19:49.354Z,100914.16
2022-09-23T10:22:51.941Z,100930.09
2022-09-23T10:25:58.356Z,100926.75
2022-09-23T10:29:03.765Z,100921.09
2022-09-23T10:32:25.599Z,100912.47
2022-09-23T10:35:33.425Z,100922.63
2022-09-23T10:38:36.005Z,100921.50
2022-09-23T10:42:05.456Z,100907.16
2022-09-23T10:45:38.612Z,100909.28
2022-09-23T10:48:54.154Z,100908.81
2022-09-23T10:52:09.321Z,100905.50
2022-09-23T10:55:28.856Z,100902.97
2022-09-23T10:58:54.060Z,100885.78
2022-09-23T11:02:08.479Z,100883.22
2022-09-23T11:05:32.636Z,100880.19
2022-09-23T11:08:53.599Z,100879.97
2022-09-23T11:12:09.830Z,100880.16
2022-09-23T11:15:27.363Z,100883.09
2022-09-23T11:18:46.841Z,100867.09
2022-09-23T11:22:07.138Z,100872.84
2022-09-23T11:25:25.715Z,100863.22
2022-09-23T11:28:55.060Z,100864.06
2022-09-23T11:32:11.104Z,100852.56
2022-09-23T11:35:19.471Z,100850.00
2022-09-23T11:38:26.252Z,100844.69
2022-09-23T11:41:33.276Z,100846.66
2022-09-23T11:44:41.145Z,100840.91
2022-09-23T11:47:46.732Z,100838.16
2022-09-23T11:50:54.042Z,100834.72
2022-09-23T11:54:01.926Z,100827.41
2022-09-23T11:57:14.380Z,100824.34
2022-09-23T12:00:20.130Z,100822.22
2022-09-23T12:03:39.934Z,100829.72
2022-09-23T12:06:48.941Z,100823.91
2022-09-23T12:10:00.460Z,100816.94
2022-09-23T12:13:08.969Z,100819.81
2022-09-23T12:16:41.076Z,100818.94
2022-09-23T12:20:02.945Z,100805.97
2022-09-23T12:23:13.976Z,100803.50
2022-09-23T12:26:19.986Z,100799.47
2022-09-23T12:32:34.994Z,100798.66
2022-09-23T12:35:42.971Z,100795.22
2022-09-23T12:38:51.297Z,100786.75
2022-09-23T12:41:59.328Z,100791.53
2022-09-23T12:45:34.997Z,100788.47
2022-09-23T12:48:57.357Z,100783.94
2022-09-23T12:52:25.880Z,100779.94
2022-09-23T12:55:51.540Z,100782.47
2022-09-23T12:59:27.801Z,100776.34
2022-09-23T13:02:37.406Z,100771.34
2022-09-23T13:06:03.997Z,100761.69
2022-09-23T13:09:10.776Z,100766.91
2022-09-23T13:12:21.147Z,100762.25
2022-09-23T13:15:30.123Z,100762.25
2022-09-23T13:19:01.560Z,100762.25
2022-09-23T13:22:09.094Z,100760.69
2022-09-23T13:25:20.555Z,100758.72
2022-09-23T13:28:33.305Z,100739.44
2022-09-23T13:31:36.170Z,100730.09
2022-09-23T13:34:44.206Z,100727.22
2022-09-23T13:37:48.755Z,100716.88
2022-09-23T13:40:54.782Z,100709.69
2022-09-23T13:43:59.697Z,100715.13
2022-09-23T13:47:03.238Z,100698.66
2022-09-23T13:50:14.108Z,100699.75
2022-09-23T13:53:22.873Z,100692.78
2022-09-23T13:56:27.248Z,100689.06
2022-09-23T13:59:32.015Z,100685.97
2022-09-23T14:02:34.596Z,100684.75
2022-09-23T14:05:39.504Z,100679.78
2022-09-23T14:08:45.468Z,100684.44
2022-09-23T14:11:48.181Z,100678.44
2022-09-23T14:14:52.740Z,100679.06
2022-09-23T14:18:01.382Z,100670.53
2022-09-23T14:21:06.338Z,100665.44
2022-09-23T14:24:20.086Z,100672.81
2022-09-23T14:27:28.964Z,100668.31
2022-09-23T14:30:31.955Z,100656.16
2022-09-23T14:33:35.111Z,100650.75
2022-09-23T14:37:11.045Z,100656.16
2022-09-23T14:40:17.049Z,100652.06
2022-09-23T14:43:24.800Z,100649.53
2022-09-23T14:46:29.005Z,100649.16
2022-09-23T14:49:32.527Z,100644.84
2022-09-23T14:52:36.822Z,100643.91
2022-09-23T14:55:39.365Z,100637.00
2022-09-23T14:58:48.218Z,100632.84
2022-09-23T15:01:53.680Z,100632.63
2022-09-23T15:05:08.731Z,100627.47
2022-09-23T15:08:17.635Z,100639.16
2022-09-23T15:11:20.437Z,100627.00
2022-09-23T15:14:39.429Z,100633.81
2022-09-23T15:17:43.661Z,100634.91
2022-09-23T15:20:52.145Z,100629.94
2022-09-23T15:23:57.767Z,100632.88
2022-09-23T15:27:00.227Z,100632.63
2022-09-23T15:30:15.084Z,100631.66
2022-09-23T15:33:17.811Z,100623.00
2022-09-23T15:36:22.376Z,100626.00
2022-09-23T15:39:35.499Z,100623.34
2022-09-23T15:42:38.922Z,100619.38
2022-09-23T15:45:45.068Z,100620.97
2022-09-23T15:48:58.487Z,100619.03
2022-09-23T15:52:02.399Z,100615.66
2022-09-23T15:55:15.272Z,100615.25
2022-09-23T15:58:17.767Z,100622.63
2022-09-23T16:01:27.174Z,100617.94
2022-09-23T16:04:31.359Z,100614.75
2022-09-23T16:07:33.905Z,100617.53
2022-09-23T16:10:38.162Z,100612.53
2022-09-23T16:13:40.632Z,100616.47
2022-09-23T16:16:44.859Z,100611.16
2022-09-23T16:19:47.469Z,100607.53
2022-09-23T16:22:54.549Z,100601.34
2022-09-23T16:25:58.401Z,100602.50
2022-09-23T16:29:01.603Z,100598.38
2022-09-23T16:32:04.294Z,100602.28
2022-09-23T16:35:08.431Z,100600.72
2022-09-23T16:38:10.929Z,100599.56
2022-09-23T16:41:14.793Z,100598.72
2022-09-23T16:44:17.280Z,100598.94
2022-09-23T16:47:20.118Z,100606.25
2022-09-23T16:50:24.280Z,100605.97
2022-09-23T16:53:29.756Z,100606.53
2022-09-23T16:56:33.609Z,100609.00
2022-09-23T16:59:50.098Z,100603.47
2022-09-23T17:03:10.255Z,100595.22
2022-09-23T17:06:13.933Z,100594.25
2022-09-23T17:09:17.414Z,100585.94
2022-09-23T17:12:27.752Z,100581.75
2022-09-23T17:15:30.484Z,100575.75
2022-09-23T17:18:33.031Z,100585.22
2022-09-23T17:21:36.349Z,100581.34
2022-09-23T17:24:38.821Z,100576.84
2022-09-23T17:27:42.631Z,100573.69
2022-09-23T17:30:45.097Z,100574.53
2022-09-23T17:33:47.676Z,100567.38
2022-09-23T17:36:50.124Z,100568.47
2022-09-23T17:39:52.601Z,100559.69
2022-09-23T17:42:56.726Z,100567.47
2022-09-23T17:46:06.379Z,100561.13
2022-09-23T17:49:09.340Z,100563.28
2022-09-23T17:52:11.878Z,100564.81
2022-09-23T17:55:14.769Z,100565.38
2022-09-23T17:58:18.908Z,100556.31
2022-09-23T18:01:23.974Z,100548.66
2022-09-23T18:04:26.499Z,100556.91
2022-09-23T18:07:29.057Z,100566.78
2022-09-23T18:10:32.045Z,100571.13
2022-09-23T18:13:35.839Z,100565.16
2022-09-23T18:16:40.368Z,100560.91
2022-09-23T18:19:43.066Z,100559.53
2022-09-23T18:22:45.588Z,100561.47
2022-09-23T18:25:48.075Z,100569.47
2022-09-23T18:28:55.528Z,100567.34
2022-09-23T18:31:59.222Z,100568.13
2022-09-23T18:35:01.914Z,100561.13
2022-09-23T18:38:04.379Z,100554.16
2022-09-23T18:41:08.095Z,100558.81
2022-09-23T18:44:13.282Z,100564.41
2022-09-23T18:47:35.759Z,100553.41
2022-09-23T18:50:40.340Z,100552.88
2022-09-23T18:53:43.085Z,100551.47
2022-09-23T18:56:46.410Z,100553.50
2022-09-23T18:59:50.235Z,100553.44
2022-09-23T19:02:52.840Z,100549.16
2022-09-23T19:05:55.321Z,100552.41
2022-09-23T19:08:57.913Z,100553.88
2022-09-23T19:12:01.824Z,100552.78
2022-09-23T19:15:06.166Z,100550.78
2022-09-23T19:18:08.647Z,100547.28
2022-09-23T19:21:13.061Z,100546.91
2022-09-23T19:24:19.842Z,100547.03
2022-09-23T19:27:23.491Z,100544.88
2022-09-23T19:30:27.267Z,100544.09
2022-09-23T19:33:29.732Z,100537.28
2022-09-23T19:36:34.348Z,100536.56
2022-09-23T19:39:37.528Z,100541.16
2022-09-23T19:42:40.085Z,100544.78
2022-09-23T19:45:44.395Z,100538.41
2022-09-23T19:48:46.993Z,100538.66
2022-09-23T19:51:49.516Z,100529.16
2022-09-23T19:54:51.981Z,100533.34
2022-09-23T19:57:54.445Z,100534.38
2022-09-23T20:00:58.397Z,100532.66
2022-09-23T20:04:01.130Z,100527.84
2022-09-23T20:07:04.214Z,100516.13
2022-09-23T20:10:07.530Z,100520.00
2022-09-23T20:13:10.005Z,100522.16
2022-09-23T20:16:16.293Z,100522.25
2022-09-23T20:19:19.285Z,100526.13
2022-09-23T20:22:32.955Z,100522.31
2022-09-23T20:25:49.876Z,100521.78
2022-09-23T20:28:53.669Z,100513.13
2022-09-23T20:31:59.344Z,100521.97
2022-09-23T20:35:01.841Z,100510.59
2022-09-23T20:38:07.993Z,100515.13
2022-09-23T20:41:10.680Z,100512.59
2022-09-23T20:44:13.923Z,100506.66
2022-09-23T20:47:19.197Z,100500.94
2022-09-23T20:50:21.673Z,100511.09
2022-09-23T20:53:24.469Z,100503.25
2022-09-23T20:56:27.476Z,100502.31
2022-09-23T20:59:29.933Z,100508.47
2022-09-23T21:02:33.766Z,100495.28
2022-09-23T21:05:36.399Z,100500.59
2022-09-23T21:08:39.319Z,100494.78
2022-09-23T21:11:41.842Z,100502.19
2022-09-23T21:14:44.322Z,100493.84
2022-09-23T21:17:48.131Z,100500.25
2022-09-23T21:20:57.171Z,100502.88
2022-09-23T21:24:17.258Z,100504.56
2022-09-23T21:27:22.841Z,100497.34
2022-09-23T21:30:25.591Z,100493.63
2022-09-23T21:33:30.943Z,100492.84
2022-09-23T21:36:37.072Z,100488.66
2022-09-23T21:39:39.579Z,100488.09
2022-09-23T21:42:42.049Z,100488.22
2022-09-23T21:45:44.564Z,100484.84
2022-09-23T21:48:53.123Z,100475.97
2022-09-23T21:52:00.743Z,100475.13
2022-09-23T21:55:03.241Z,100475.19
2022-09-23T21:58:05.730Z,100482.47
2022-09-23T22:01:09.644Z,100475.75
2022-09-23T22:04:17.244Z,100477.75
2022-09-23T22:07:20.074Z,100480.66
2022-09-23T22:10:22.561Z,100479.16
2022-09-23T22:13:25.039Z,100473.00
2022-09-23T22:16:28.269Z,100479.16
2022-09-23T22:19:35.488Z,100472.22
2022-09-23T22:22:38.291Z,100464.13
2022-09-23T22:25:40.813Z,100467.50
2022-09-23T22:29:00.775Z,100463.00
2022-09-23T22:32:22.623Z,100458.66
2022-09-23T22:35:26.398Z,100458.00
2022-09-23T22:38:29.704Z,100459.06
2022-09-23T22:41:32.465Z,100451.94
2022-09-23T22:44:34.970Z,100448.63
2022-09-23T22:47:39.663Z,100452.94
2022-09-23T22:50:43.564Z,100455.47
2022-09-23T22:53:46.041Z,100452.03
2022-09-23T22:56:48.760Z,100455.31
2022-09-23T22:59:51.242Z,100446.47
2022-09-23T23:02:54.582Z,100450.75
2022-09-23T23:06:02.026Z,100449.84
2022-09-23T23:09:07.418Z,100440.06
2022-09-23T23:12:12.821Z,100438.88
2022-09-23T23:15:16.220Z,100442.38
2022-09-23T23:18:18.701Z,100443.00
2022-09-23T23:21:23.087Z,100436.81
2022-09-23T23:24:25.562Z,100432.97
2022-09-23T23:27:28.045Z,100426.91
2022-09-23T23:30:30.531Z,100430.47
2022-09-23T23:33:33.093Z,100431.25
2022-09-23T23:36:37.147Z,100428.13
2022-09-23T23:39:39.627Z,100425.47
2022-09-23T23:42:42.382Z,100427.91
2022-09-23T23:45:44.835Z,100425.75
2022-09-23T23:48:48.150Z,100428.97
2022-09-23T23:51:53.003Z,100424.28
2022-09-23T23:54:55.491Z,100426.75
2022-09-23T23:58:00.413Z,100431.16
